Time;durP1;ratioP1;P1;durP2;ratioP2;P2;SDS_P1;SDS_P2;PMS_P1;PMS_P2;Temp;Humidity;BMP_temperature;BMP_pressure;BME280_temperature;BME280_humidity;BME280_pressure;Samples;Min_cycle;Max_cycle;Signal;HPM_P1;HPM_P2
2024/03/25 00:00:49;;;;;;;0.30;0.30;;;;;;;;;;5007615;28;20060;-79
2024/03/25 00:03:15;;;;;;;1.10;1.10;;;;;;;;;;5028133;28;20041;-80
2024/03/25 00:05:41;;;;;;;0.40;0.40;;;;;;;;;;5029357;28;20044;-81
2024/03/25 00:08:07;;;;;;;0.75;0.75;;;;;;;;;;5029133;28;20481;-81
2024/03/25 00:10:32;;;;;;;0.60;0.60;;;;;;;;;;5026564;28;20037;-80
2024/03/25 00:12:58;;;;;;;1.20;0.82;;;;;;;;;;5027372;28;20037;-81
2024/03/25 00:15:23;;;;;;;0.20;0.20;;;;;;;;;;5026637;28;20056;-80
2024/03/25 00:17:50;;;;;;;0.40;0.40;;;;;;;;;;5018163;28;20021;-80
2024/03/25 00:20:16;;;;;;;0.30;0.30;;;;;;;;;;5040105;28;20033;-80
2024/03/25 00:22:41;;;;;;;0.20;0.20;;;;;;;;;;5010317;28;20182;-80
2024/03/25 00:25:07;;;;;;;0.28;0.28;;;;;;;;;;5027626;28;20041;-80
2024/03/25 00:27:33;;;;;;;0.30;0.30;;;;;;;;;;5024563;28;20517;-79
2024/03/25 00:29:58;;;;;;;0.40;0.40;;;;;;;;;;5028302;28;20564;-81
2024/03/25 00:32:23;;;;;;;0.30;0.30;;;;;;;;;;5025507;28;20026;-80
2024/03/25 00:34:49;;;;;;;0.30;0.30;;;;;;;;;;5026307;28;20195;-79
2024/03/25 00:37:14;;;;;;;0.20;0.20;;;;;;;;;;5026628;28;20050;-79
2024/03/25 00:39:40;;;;;;;0.30;0.30;;;;;;;;;;5023401;28;20041;-80
2024/03/25 00:42:05;;;;;;;0.68;0.68;;;;;;;;;;5023610;28;20049;-79
2024/03/25 00:44:31;;;;;;;0.30;0.30;;;;;;;;;;5027183;28;20021;-80
2024/03/25 00:46:56;;;;;;;0.40;0.40;;;;;;;;;;5026407;28;20044;-80
2024/03/25 00:49:21;;;;;;;0.30;0.30;;;;;;;;;;5009038;28;20111;-81
2024/03/25 00:51:48;;;;;;;0.30;0.30;;;;;;;;;;5025970;28;20635;-81
2024/03/25 00:54:14;;;;;;;0.32;0.32;;;;;;;;;;5024530;28;20137;-81
2024/03/25 00:56:39;;;;;;;0.20;0.20;;;;;;;;;;5027665;28;20025;-82
2024/03/25 00:59:06;;;;;;;0.30;0.30;;;;;;;;;;5025705;28;22130;-81
2024/03/25 01:01:32;;;;;;;0.30;0.30;;;;;;;;;;5008399;28;20054;-81
2024/03/25 01:03:58;;;;;;;0.30;0.30;;;;;;;;;;5009417;28;20115;-82
2024/03/25 01:06:23;;;;;;;0.98;0.98;;;;;;;;;;5008827;28;20045;-80
2024/03/25 01:08:49;;;;;;;0.30;0.30;;;;;;;;;;5023735;28;20381;-81
2024/03/25 01:11:14;;;;;;;0.30;0.30;;;;;;;;;;5024812;28;20037;-81
2024/03/25 01:13:41;;;;;;;0.30;0.30;;;;;;;;;;5018185;28;20060;-80
2024/03/25 01:16:06;;;;;;;0.30;0.30;;;;;;;;;;5027718;28;20044;-80
2024/03/25 01:18:32;;;;;;;0.30;0.30;;;;;;;;;;5021761;28;20033;-82
2024/03/25 01:20:57;;;;;;;0.25;0.25;;;;;;;;;;5024009;28;20041;-81
2024/03/25 01:23:23;;;;;;;0.30;0.30;;;;;;;;;;5045953;28;20034;-82
2024/03/25 01:25:48;;;;;;;0.30;0.30;;;;;;;;;;5022275;28;20065;-81
2024/03/25 01:28:14;;;;;;;0.30;0.30;;;;;;;;;;5014962;28;20408;-81
2024/03/25 01:30:39;;;;;;;0.35;0.35;;;;;;;;;;5009354;28;20733;-79
2024/03/25 01:33:05;;;;;;;0.20;0.20;;;;;;;;;;5025130;28;20088;-79
2024/03/25 01:35:30;;;;;;;0.20;0.20;;;;;;;;;;5020028;28;20046;-82
2024/03/25 01:37:56;;;;;;;0.20;0.20;;;;;;;;;;5024724;28;20061;-83
2024/03/25 01:40:21;;;;;;;0.30;0.30;;;;;;;;;;5023901;28;20045;-81
2024/03/25 01:42:59;;;;;;;0.30;0.30;;;;;;;;;;5019613;28;20034;-83
2024/03/25 01:45:25;;;;;;;0.43;0.43;;;;;;;;;;5023931;28;20045;-82
2024/03/25 01:47:51;;;;;;;0.30;0.30;;;;;;;;;;5022534;28;20481;-82
2024/03/25 01:50:16;;;;;;;0.30;0.30;;;;;;;;;;5023706;28;20033;-80
2024/03/25 01:52:42;;;;;;;0.30;0.30;;;;;;;;;;5030810;28;20036;-80
2024/03/25 01:55:08;;;;;;;0.35;0.35;;;;;;;;;;5016011;28;20155;-83
2024/03/25 01:57:34;;;;;;;0.30;0.30;;;;;;;;;;5021245;28;20041;-81
2024/03/25 01:59:59;;;;;;;0.40;0.40;;;;;;;;;;5023574;28;20045;-82
2024/03/25 02:02:25;;;;;;;0.30;0.30;;;;;;;;;;5022453;28;20044;-80
2024/03/25 02:04:50;;;;;;;0.30;0.30;;;;;;;;;;5024133;28;20030;-78
2024/03/25 02:07:16;;;;;;;0.30;0.30;;;;;;;;;;5025094;28;20076;-78
2024/03/25 02:09:42;;;;;;;0.30;0.30;;;;;;;;;;5023626;28;20053;-81
2024/03/25 02:12:09;;;;;;;0.30;0.30;;;;;;;;;;5026664;28;20393;-81
2024/03/25 02:14:34;;;;;;;0.40;0.40;;;;;;;;;;5023059;28;20038;-81
2024/03/25 02:17:00;;;;;;;0.30;0.30;;;;;;;;;;5025032;28;20071;-82
2024/03/25 02:19:25;;;;;;;0.30;0.30;;;;;;;;;;5024861;28;20425;-81
2024/03/25 02:21:51;;;;;;;0.40;0.40;;;;;;;;;;5026142;28;20124;-82
2024/03/25 02:24:17;;;;;;;0.35;0.35;;;;;;;;;;5022664;28;20132;-82
2024/03/25 02:26:43;;;;;;;0.30;0.30;;;;;;;;;;5025363;28;20017;-80
2024/03/25 02:29:11;;;;;;;0.30;0.30;;;;;;;;;;5027454;28;20036;-82
2024/03/25 02:31:37;;;;;;;0.30;0.30;;;;;;;;;;5026084;28;20041;-81
2024/03/25 02:34:02;;;;;;;0.20;0.20;;;;;;;;;;5022902;28;20064;-81
2024/03/25 02:36:27;;;;;;;0.30;0.30;;;;;;;;;;5005993;28;20056;-81
2024/03/25 02:38:53;;;;;;;0.30;0.30;;;;;;;;;;5024614;28;20040;-81
2024/03/25 02:41:19;;;;;;;0.40;0.40;;;;;;;;;;5024457;28;20018;-82
2024/03/25 02:43:44;;;;;;;0.30;0.30;;;;;;;;;;5023419;28;20048;-83
2024/03/25 02:46:09;;;;;;;0.30;0.30;;;;;;;;;;5023323;28;20041;-83
2024/03/25 02:48:35;;;;;;;1.90;1.80;;;;;;;;;;5019223;28;20050;-80
2024/03/25 02:51:00;;;;;;;0.30;0.30;;;;;;;;;;5021044;28;20774;-80
2024/03/25 02:53:26;;;;;;;0.30;0.30;;;;;;;;;;5023027;28;20034;-80
2024/03/25 02:55:51;;;;;;;0.30;0.30;;;;;;;;;;5023408;28;20041;-79
2024/03/25 02:58:17;;;;;;;0.30;0.30;;;;;;;;;;5022248;28;20691;-80
2024/03/25 03:00:45;;;;;;;0.20;0.20;;;;;;;;;;5025678;28;20050;-80
2024/03/25 03:03:10;;;;;;;0.30;0.30;;;;;;;;;;5032772;28;20155;-80
2024/03/25 03:05:35;;;;;;;0.30;0.30;;;;;;;;;;5029585;28;20075;-78
2024/03/25 03:08:01;;;;;;;0.38;0.38;;;;;;;;;;5026114;28;20030;-82
2024/03/25 03:10:26;;;;;;;0.20;0.20;;;;;;;;;;5028263;28;20045;-81
2024/03/25 03:12:53;;;;;;;0.30;0.30;;;;;;;;;;5028537;28;20597;-81
2024/03/25 03:15:18;;;;;;;0.30;0.30;;;;;;;;;;5023947;28;20079;-82
2024/03/25 03:17:43;;;;;;;0.30;0.30;;;;;;;;;;5036864;28;20053;-80
2024/03/25 03:20:09;;;;;;;0.95;0.95;;;;;;;;;;5030592;28;20056;-82
2024/03/25 03:22:35;;;;;;;0.20;0.20;;;;;;;;;;5026313;28;20045;-81
2024/03/25 03:25:00;;;;;;;0.40;0.40;;;;;;;;;;5029787;28;20141;-82
2024/03/25 03:27:26;;;;;;;0.30;0.30;;;;;;;;;;5027265;28;20041;-80
2024/03/25 03:29:51;;;;;;;0.30;0.30;;;;;;;;;;5028584;28;20022;-79
2024/03/25 03:32:17;;;;;;;0.30;0.30;;;;;;;;;;5027768;28;20031;-80
2024/03/25 03:34:42;;;;;;;0.40;0.40;;;;;;;;;;5010186;28;20057;-81
2024/03/25 03:37:07;;;;;;;0.30;0.30;;;;;;;;;;5007780;28;20136;-80
2024/03/25 03:39:33;;;;;;;0.22;0.22;;;;;;;;;;5021271;28;20039;-80
2024/03/25 03:41:58;;;;;;;0.20;0.20;;;;;;;;;;5028999;28;20521;-80
2024/03/25 03:44:24;;;;;;;0.22;0.22;;;;;;;;;;5026653;28;20053;-80
2024/03/25 03:46:49;;;;;;;0.20;0.20;;;;;;;;;;5026967;28;20072;-82
2024/03/25 03:49:14;;;;;;;0.40;0.40;;;;;;;;;;5042211;28;20046;-80
2024/03/25 03:51:40;;;;;;;0.30;0.30;;;;;;;;;;5026398;28;20049;-80
2024/03/25 03:54:06;;;;;;;0.20;0.20;;;;;;;;;;5027841;28;20049;-79
2024/03/25 03:56:32;;;;;;;0.38;0.38;;;;;;;;;;5027796;28;20060;-80
2024/03/25 03:58:57;;;;;;;0.30;0.30;;;;;;;;;;5025961;28;20740;-80
2024/03/25 04:01:22;;;;;;;0.50;0.50;;;;;;;;;;4985670;28;20125;-81
2024/03/25 04:03:48;;;;;;;0.30;0.30;;;;;;;;;;4987568;28;20044;-82
2024/03/25 04:06:13;;;;;;;0.20;0.20;;;;;;;;;;4988157;28;20031;-81
2024/03/25 04:08:39;;;;;;;0.20;0.20;;;;;;;;;;4987267;28;20058;-82
2024/03/25 04:11:06;;;;;;;0.30;0.30;;;;;;;;;;4989328;28;20042;-81
2024/03/25 04:13:31;;;;;;;0.30;0.30;;;;;;;;;;4987049;28;20035;-81
2024/03/25 04:16:00;;;;;;;0.38;0.38;;;;;;;;;;4988124;28;20045;-80
2024/03/25 04:18:26;;;;;;;0.30;0.30;;;;;;;;;;4987267;28;20034;-81
2024/03/25 04:20:52;;;;;;;0.30;0.30;;;;;;;;;;4988014;28;20550;-80
2024/03/25 04:23:17;;;;;;;0.30;0.30;;;;;;;;;;4985781;28;20033;-80
2024/03/25 04:25:43;;;;;;;0.82;0.82;;;;;;;;;;4986685;28;20038;-80
2024/03/25 04:28:08;;;;;;;0.35;0.35;;;;;;;;;;4988379;28;20050;-81
2024/03/25 04:30:33;;;;;;;0.38;0.38;;;;;;;;;;4991235;28;20049;-80
2024/03/25 04:32:59;;;;;;;0.30;0.30;;;;;;;;;;4984662;28;20126;-82
2024/03/25 04:35:24;;;;;;;0.30;0.30;;;;;;;;;;4988840;28;20126;-84
2024/03/25 04:37:50;;;;;;;0.30;0.30;;;;;;;;;;4987433;28;20132;-82
2024/03/25 04:40:18;;;;;;;0.30;0.30;;;;;;;;;;4985972;28;21302;-82
2024/03/25 04:42:44;;;;;;;0.68;0.60;;;;;;;;;;4996062;28;20490;-81
2024/03/25 04:45:09;;;;;;;1.00;1.00;;;;;;;;;;4997362;28;20047;-81
2024/03/25 04:47:34;;;;;;;0.20;0.20;;;;;;;;;;4984781;28;20025;-81
2024/03/25 04:50:02;;;;;;;0.40;0.40;;;;;;;;;;4991051;28;20038;-83
2024/03/25 04:52:28;;;;;;;0.20;0.20;;;;;;;;;;4987581;28;20045;-81
2024/03/25 04:54:53;;;;;;;0.40;0.40;;;;;;;;;;4989746;28;20413;-82
2024/03/25 04:57:18;;;;;;;0.30;0.30;;;;;;;;;;4990937;28;20799;-83
2024/03/25 04:59:44;;;;;;;0.25;0.25;;;;;;;;;;4990760;28;20124;-83
2024/03/25 05:02:09;;;;;;;0.30;0.30;;;;;;;;;;5005947;28;20630;-83
2024/03/25 05:04:35;;;;;;;0.40;0.40;;;;;;;;;;5003750;28;20072;-82
2024/03/25 05:07:01;;;;;;;0.20;0.20;;;;;;;;;;5006676;28;20060;-85
2024/03/25 05:09:26;;;;;;;0.32;0.32;;;;;;;;;;5006283;28;20049;-83
2024/03/25 05:11:51;;;;;;;0.40;0.40;;;;;;;;;;5005458;28;20039;-86
2024/03/25 05:14:17;;;;;;;0.20;0.20;;;;;;;;;;5006561;28;20120;-82
2024/03/25 05:16:42;;;;;;;0.30;0.30;;;;;;;;;;5005750;28;20842;-83
2024/03/25 05:19:08;;;;;;;0.40;0.40;;;;;;;;;;5003486;28;20046;-83
2024/03/25 05:21:34;;;;;;;0.30;0.30;;;;;;;;;;5004404;28;20053;-83
2024/03/25 05:23:59;;;;;;;0.30;0.30;;;;;;;;;;5004825;28;20117;-86
2024/03/25 05:26:25;;;;;;;0.30;0.30;;;;;;;;;;5005320;28;20026;-82
2024/03/25 05:28:53;;;;;;;0.30;0.30;;;;;;;;;;5004763;28;20038;-81
2024/03/25 05:31:19;;;;;;;0.30;0.30;;;;;;;;;;5003371;28;20034;-82
2024/03/25 05:33:44;;;;;;;0.30;0.30;;;;;;;;;;5004090;28;20049;-82
2024/03/25 05:36:10;;;;;;;0.20;0.20;;;;;;;;;;5006581;28;20034;-80
2024/03/25 05:38:35;;;;;;;0.30;0.30;;;;;;;;;;5005129;28;20438;-80
2024/03/25 05:41:01;;;;;;;0.25;0.25;;;;;;;;;;4999578;28;20025;-77
2024/03/25 05:43:26;;;;;;;0.30;0.30;;;;;;;;;;5001351;28;20074;-77
2024/03/25 05:45:53;;;;;;;0.30;0.30;;;;;;;;;;5007710;28;20457;-83
2024/03/25 05:48:19;;;;;;;0.30;0.30;;;;;;;;;;5004448;28;20037;-85
2024/03/25 05:50:44;;;;;;;0.65;0.65;;;;;;;;;;5001251;28;20036;-84
2024/03/25 05:53:11;;;;;;;0.30;0.30;;;;;;;;;;4998443;28;20030;-85
2024/03/25 05:55:37;;;;;;;0.20;0.20;;;;;;;;;;5004538;28;20153;-82
2024/03/25 05:58:03;;;;;;;0.30;0.30;;;;;;;;;;5002619;28;20497;-82
2024/03/25 06:00:32;;;;;;;15.65;1.85;;;;;;;;;;5004244;28;20125;-86
2024/03/25 06:02:57;;;;;;;0.30;0.30;;;;;;;;;;5004781;28;20085;-84
2024/03/25 06:05:23;;;;;;;0.30;0.30;;;;;;;;;;5006719;28;20521;-82
2024/03/25 06:07:48;;;;;;;0.20;0.20;;;;;;;;;;5003619;28;20046;-83
2024/03/25 06:10:13;;;;;;;0.30;0.30;;;;;;;;;;5005193;28;20038;-84
2024/03/25 06:12:39;;;;;;;0.30;0.30;;;;;;;;;;5006397;28;20034;-84
2024/03/25 06:15:05;;;;;;;0.30;0.30;;;;;;;;;;5000785;28;20077;-85
2024/03/25 06:17:30;;;;;;;0.30;0.30;;;;;;;;;;5015349;28;20030;-83
2024/03/25 06:19:55;;;;;;;0.20;0.20;;;;;;;;;;5007159;28;20041;-87
2024/03/25 06:22:21;;;;;;;0.30;0.30;;;;;;;;;;5007265;28;20069;-82
2024/03/25 06:24:50;;;;;;;0.30;0.30;;;;;;;;;;5005514;28;20037;-81
2024/03/25 06:27:15;;;;;;;0.38;0.38;;;;;;;;;;5005162;28;20030;-83
2024/03/25 06:29:41;;;;;;;0.30;0.30;;;;;;;;;;5007006;28;20587;-81
2024/03/25 06:34:50;;;;;;;0.30;0.30;;;;;;;;;;5005105;28;20128;-82
2024/03/25 06:37:16;;;;;;;0.38;0.38;;;;;;;;;;5006376;28;20041;-82
2024/03/25 06:39:41;;;;;;;0.30;0.30;;;;;;;;;;4999097;28;20038;-82
2024/03/25 06:42:07;;;;;;;0.38;0.38;;;;;;;;;;5000910;28;20106;-83
2024/03/25 06:44:32;;;;;;;0.30;0.30;;;;;;;;;;5004932;28;20429;-83
2024/03/25 06:46:57;;;;;;;0.20;0.20;;;;;;;;;;5005594;28;20037;-84
2024/03/25 06:49:23;;;;;;;0.25;0.25;;;;;;;;;;5004517;28;20034;-85
2024/03/25 06:51:48;;;;;;;0.30;0.30;;;;;;;;;;5005604;28;20041;-82
2024/03/25 06:54:13;;;;;;;0.30;0.30;;;;;;;;;;5004642;28;20050;-83
2024/03/25 06:56:40;;;;;;;0.40;0.40;;;;;;;;;;5006652;28;20018;-83
2024/03/25 06:59:06;;;;;;;0.30;0.30;;;;;;;;;;5005342;28;20469;-83
2024/03/25 07:01:31;;;;;;;0.30;0.30;;;;;;;;;;5017490;28;20065;-83
2024/03/25 07:03:57;;;;;;;0.30;0.30;;;;;;;;;;5025620;28;20038;-85
2024/03/25 07:06:23;;;;;;;0.30;0.30;;;;;;;;;;5023089;28;20068;-84
2024/03/25 07:08:48;;;;;;;0.30;0.30;;;;;;;;;;5024283;28;20044;-81
2024/03/25 07:11:13;;;;;;;0.30;0.30;;;;;;;;;;5027472;28;20056;-82
2024/03/25 07:13:39;;;;;;;0.30;0.30;;;;;;;;;;5028768;28;20053;-84
2024/03/25 07:16:04;;;;;;;0.30;0.30;;;;;;;;;;5024407;28;20457;-81
2024/03/25 07:18:30;;;;;;;0.30;0.30;;;;;;;;;;5025347;28;20038;-83
2024/03/25 07:20:55;;;;;;;0.40;0.40;;;;;;;;;;4997991;28;20058;-83
2024/03/25 07:23:20;;;;;;;0.35;0.35;;;;;;;;;;5038677;28;20488;-82
2024/03/25 07:25:46;;;;;;;0.20;0.20;;;;;;;;;;5025714;28;20050;-82
2024/03/25 07:28:11;;;;;;;0.30;0.30;;;;;;;;;;5022542;28;20755;-82
2024/03/25 07:30:38;;;;;;;0.40;0.40;;;;;;;;;;5023603;28;20088;-84
2024/03/25 07:33:03;;;;;;;0.30;0.30;;;;;;;;;;5025445;28;20064;-82
2024/03/25 07:35:30;;;;;;;0.40;0.40;;;;;;;;;;5025729;28;20426;-81
2024/03/25 07:37:55;;;;;;;0.30;0.30;;;;;;;;;;5006405;28;20076;-83
2024/03/25 07:40:22;;;;;;;0.30;0.30;;;;;;;;;;5024219;28;20103;-82
2024/03/25 07:42:48;;;;;;;0.30;0.30;;;;;;;;;;5026894;28;20048;-81
2024/03/25 07:45:15;;;;;;;0.43;0.43;;;;;;;;;;5027328;28;20044;-82
2024/03/25 07:47:41;;;;;;;0.20;0.20;;;;;;;;;;5024364;28;20477;-83
2024/03/25 07:50:06;;;;;;;0.25;0.25;;;;;;;;;;5025254;28;20018;-85
2024/03/25 07:52:32;;;;;;;0.30;0.30;;;;;;;;;;5026104;28;20405;-82
2024/03/25 07:54:57;;;;;;;0.30;0.30;;;;;;;;;;5024096;28;20053;-82
2024/03/25 07:57:23;;;;;;;0.30;0.30;;;;;;;;;;5018038;28;20096;-83
2024/03/25 07:59:48;;;;;;;1.42;1.33;;;;;;;;;;5011416;28;20054;-87
2024/03/25 08:02:14;;;;;;;0.28;0.28;;;;;;;;;;4983784;28;20116;-86
2024/03/25 08:04:40;;;;;;;0.30;0.30;;;;;;;;;;5011501;28;20110;-81
2024/03/25 08:07:05;;;;;;;0.30;0.30;;;;;;;;;;5015897;28;21335;-82
2024/03/25 08:09:31;;;;;;;0.30;0.30;;;;;;;;;;5011047;28;20038;-84
2024/03/25 08:11:56;;;;;;;0.30;0.30;;;;;;;;;;5001052;28;20038;-81
2024/03/25 08:14:22;;;;;;;0.98;0.98;;;;;;;;;;4991639;28;20112;-83
2024/03/25 08:16:47;;;;;;;0.30;0.30;;;;;;;;;;4991428;28;20129;-82
2024/03/25 08:19:13;;;;;;;0.25;0.25;;;;;;;;;;4996936;28;20038;-85
2024/03/25 08:21:38;;;;;;;0.30;0.30;;;;;;;;;;4999420;28;20046;-83
2024/03/25 08:24:03;;;;;;;0.20;0.20;;;;;;;;;;4984444;28;20923;-84
2024/03/25 08:26:29;;;;;;;0.30;0.30;;;;;;;;;;4999173;28;20030;-83
2024/03/25 08:28:54;;;;;;;0.38;0.38;;;;;;;;;;4999548;28;20461;-82
2024/03/25 08:31:20;;;;;;;0.40;0.40;;;;;;;;;;5002883;28;20057;-83
2024/03/25 08:33:45;;;;;;;0.47;0.47;;;;;;;;;;4999916;28;20053;-84
2024/03/25 08:36:11;;;;;;;0.30;0.30;;;;;;;;;;5002848;28;20102;-84
2024/03/25 08:38:37;;;;;;;0.40;0.35;;;;;;;;;;5001209;28;20105;-80
2024/03/25 08:41:02;;;;;;;0.30;0.30;;;;;;;;;;5001738;28;20092;-82
2024/03/25 08:43:28;;;;;;;0.30;0.30;;;;;;;;;;4980869;28;20126;-79
2024/03/25 08:45:53;;;;;;;0.30;0.30;;;;;;;;;;4995919;28;20050;-87
2024/03/25 08:48:20;;;;;;;0.52;0.52;;;;;;;;;;4997939;28;20046;-86
2024/03/25 08:50:46;;;;;;;0.38;0.38;;;;;;;;;;4994061;28;20033;-85
2024/03/25 08:53:13;;;;;;;0.50;0.50;;;;;;;;;;4982217;28;20110;-80
2024/03/25 08:55:38;;;;;;;0.22;0.22;;;;;;;;;;4995062;28;20049;-83
2024/03/25 08:58:04;;;;;;;0.20;0.20;;;;;;;;;;4978722;28;20040;-86
2024/03/25 09:00:29;;;;;;;0.30;0.30;;;;;;;;;;5007124;28;20108;-83
2024/03/25 09:02:55;;;;;;;0.40;0.40;;;;;;;;;;5013053;28;20045;-85
2024/03/25 09:05:21;;;;;;;0.28;0.28;;;;;;;;;;5007036;28;20040;-84
2024/03/25 09:07:51;;;;;;;0.30;0.30;;;;;;;;;;5015366;28;20033;-82
2024/03/25 09:13:00;;;;;;;;;;;;;;;;;;5025510;28;20047;-80
2024/03/25 09:15:25;;;;;;;0.30;0.30;;;;;;;;;;5026120;28;20273;-81
2024/03/25 09:17:51;;;;;;;0.30;0.30;;;;;;;;;;5026876;28;20017;-82
2024/03/25 09:20:17;;;;;;;0.30;0.30;;;;;;;;;;5026819;28;20641;-83
2024/03/25 09:22:45;;;;;;;0.20;0.20;;;;;;;;;;5032215;28;20112;-81
2024/03/25 09:25:11;;;;;;;0.30;0.30;;;;;;;;;;5025249;28;20057;-81
2024/03/25 09:27:36;;;;;;;0.30;0.30;;;;;;;;;;5026840;28;20047;-82
2024/03/25 09:30:03;;;;;;;0.30;0.30;;;;;;;;;;5008407;28;20041;-80
2024/03/25 09:32:30;;;;;;;0.20;0.20;;;;;;;;;;5025679;28;20055;-80
2024/03/25 09:34:56;;;;;;;0.20;0.20;;;;;;;;;;5006676;28;20055;-78
2024/03/25 09:37:21;;;;;;;0.20;0.20;;;;;;;;;;5028062;28;20030;-76
2024/03/25 09:39:46;;;;;;;1.00;1.00;;;;;;;;;;5022229;28;20056;-78
2024/03/25 09:42:14;;;;;;;0.35;0.35;;;;;;;;;;5026216;28;20497;-77
2024/03/25 09:44:39;;;;;;;1.65;1.58;;;;;;;;;;5025139;28;20037;-80
2024/03/25 09:47:05;;;;;;;0.28;0.28;;;;;;;;;;5025916;28;20033;-78
2024/03/25 09:49:31;;;;;;;0.40;0.40;;;;;;;;;;5026133;28;20064;-78
2024/03/25 09:51:57;;;;;;;0.30;0.30;;;;;;;;;;5024680;28;20041;-78
2024/03/25 09:54:22;;;;;;;2.30;1.65;;;;;;;;;;5024000;28;20438;-79
2024/03/25 09:56:49;;;;;;;0.20;0.20;;;;;;;;;;5006366;28;20056;-79
2024/03/25 09:59:14;;;;;;;0.82;0.55;;;;;;;;;;5025919;28;20100;-80
2024/03/25 10:01:39;;;;;;;0.30;0.30;;;;;;;;;;4986352;28;20153;-81
2024/03/25 10:04:05;;;;;;;0.30;0.30;;;;;;;;;;5006267;28;20046;-80
2024/03/25 10:06:32;;;;;;;0.30;0.30;;;;;;;;;;5005970;28;20472;-79
2024/03/25 10:08:57;;;;;;;0.20;0.20;;;;;;;;;;5003313;28;20045;-80
2024/03/25 10:11:24;;;;;;;0.30;0.30;;;;;;;;;;5008684;28;20033;-79
2024/03/25 10:13:50;;;;;;;2.10;1.75;;;;;;;;;;5023816;28;20046;-79
2024/03/25 10:16:15;;;;;;;0.28;0.28;;;;;;;;;;5006133;28;20140;-79
2024/03/25 10:18:42;;;;;;;0.20;0.20;;;;;;;;;;5004200;28;20033;-80
2024/03/25 10:21:10;;;;;;;0.20;0.20;;;;;;;;;;5000912;28;20042;-80
2024/03/25 10:23:40;;;;;;;0.20;0.20;;;;;;;;;;5000301;28;20084;-80
2024/03/25 10:26:05;;;;;;;0.30;0.30;;;;;;;;;;4986434;28;20064;-79
2024/03/25 10:28:31;;;;;;;0.20;0.20;;;;;;;;;;5001378;28;20066;-79
2024/03/25 10:31:03;;;;;;;0.30;0.30;;;;;;;;;;4987095;28;20050;-80
2024/03/25 10:33:28;;;;;;;0.30;0.30;;;;;;;;;;5005597;28;20160;-78
2024/03/25 10:35:54;;;;;;;0.30;0.30;;;;;;;;;;5005112;28;20037;-78
2024/03/25 10:38:21;;;;;;;0.40;0.40;;;;;;;;;;4988385;28;20041;-80
2024/03/25 10:40:49;;;;;;;0.28;0.28;;;;;;;;;;4981259;28;20112;-79
2024/03/25 10:43:16;;;;;;;0.30;0.30;;;;;;;;;;5005680;28;20073;-80
2024/03/25 10:45:43;;;;;;;0.30;0.30;;;;;;;;;;5004848;28;20474;-79
2024/03/25 10:48:13;;;;;;;0.30;0.30;;;;;;;;;;5004254;28;20045;-79
2024/03/25 10:50:39;;;;;;;0.22;0.22;;;;;;;;;;5005128;28;20047;-79
2024/03/25 10:53:05;;;;;;;0.30;0.30;;;;;;;;;;5005352;28;20496;-80
2024/03/25 10:55:31;;;;;;;0.30;0.30;;;;;;;;;;4986341;28;20046;-77
2024/03/25 10:57:56;;;;;;;0.20;0.20;;;;;;;;;;4987303;28;20478;-79
2024/03/25 11:00:22;;;;;;;0.30;0.30;;;;;;;;;;5003786;28;20138;-80
2024/03/25 11:02:50;;;;;;;0.30;0.30;;;;;;;;;;5004557;28;20439;-78
2024/03/25 11:05:16;;;;;;;0.20;0.20;;;;;;;;;;5005917;28;20025;-79
2024/03/25 11:07:42;;;;;;;0.20;0.20;;;;;;;;;;5007845;28;20033;-79
2024/03/25 11:10:08;;;;;;;0.20;0.20;;;;;;;;;;5001668;28;20042;-79
2024/03/25 11:12:37;;;;;;;0.25;0.25;;;;;;;;;;5007116;28;20049;-79
2024/03/25 11:15:05;;;;;;;0.30;0.30;;;;;;;;;;5004672;28;20058;-80
2024/03/25 11:17:30;;;;;;;0.68;0.50;;;;;;;;;;5005904;28;20070;-79
2024/03/25 11:20:14;;;;;;;1.63;1.52;;;;;;;;;;5004960;28;20038;-79
2024/03/25 11:22:51;;;;;;;2.55;1.60;;;;;;;;;;5005483;28;20655;-79
2024/03/25 11:25:17;;;;;;;0.90;0.77;;;;;;;;;;5007050;28;20465;-80
2024/03/25 11:27:46;;;;;;;2.72;0.77;;;;;;;;;;4984292;28;20046;-79
2024/03/25 11:30:13;;;;;;;2.15;1.15;;;;;;;;;;5005782;28;20038;-81
2024/03/25 11:32:52;;;;;;;0.73;0.65;;;;;;;;;;5009396;28;20029;-79
2024/03/25 11:35:18;;;;;;;0.52;0.52;;;;;;;;;;5008379;28;20489;-80
2024/03/25 11:37:43;;;;;;;0.40;0.38;;;;;;;;;;5007976;28;20046;-80
2024/03/25 11:40:12;;;;;;;0.40;0.40;;;;;;;;;;5005820;28;20049;-80
2024/03/25 11:42:41;;;;;;;2.15;1.10;;;;;;;;;;4991261;28;20109;-79
2024/03/25 11:45:15;;;;;;;1.65;0.57;;;;;;;;;;5008301;28;20057;-80
2024/03/25 11:47:41;;;;;;;0.35;0.35;;;;;;;;;;5008437;28;20113;-79
2024/03/25 11:50:07;;;;;;;0.20;0.20;;;;;;;;;;5009833;28;20116;-80
2024/03/25 11:52:32;;;;;;;1.10;0.95;;;;;;;;;;5009847;28;20097;-81
2024/03/25 11:54:58;;;;;;;0.45;0.45;;;;;;;;;;5007806;28;20053;-80
2024/03/25 11:57:23;;;;;;;0.43;0.43;;;;;;;;;;5008479;28;20061;-79
2024/03/25 11:59:49;;;;;;;0.40;0.40;;;;;;;;;;5007938;28;20116;-79
2024/03/25 12:02:18;;;;;;;0.20;0.20;;;;;;;;;;5009097;28;20026;-80
2024/03/25 12:04:43;;;;;;;0.22;0.22;;;;;;;;;;5006881;28;20038;-79
2024/03/25 12:07:10;;;;;;;0.55;0.55;;;;;;;;;;5008514;28;20048;-80
2024/03/25 12:12:20;;;;;;;0.22;0.22;;;;;;;;;;5006112;28;20052;-81
2024/03/25 12:14:45;;;;;;;0.38;0.38;;;;;;;;;;5005607;28;20037;-79
2024/03/25 12:17:11;;;;;;;0.40;0.30;;;;;;;;;;5008736;28;20040;-80
2024/03/25 12:19:36;;;;;;;0.30;0.30;;;;;;;;;;5008570;28;20034;-80
2024/03/25 12:22:03;;;;;;;1.92;0.65;;;;;;;;;;5008219;28;20588;-78
2024/03/25 12:24:29;;;;;;;0.40;0.40;;;;;;;;;;5006701;28;20057;-79
2024/03/25 12:26:54;;;;;;;0.65;0.50;;;;;;;;;;5008060;28;20038;-79
2024/03/25 12:29:20;;;;;;;0.25;0.25;;;;;;;;;;5008715;28;20064;-79
2024/03/25 12:31:56;;;;;;;0.75;0.68;;;;;;;;;;5007737;28;20060;-79
2024/03/25 12:34:22;;;;;;;0.55;0.55;;;;;;;;;;5003421;28;20673;-79
2024/03/25 12:36:48;;;;;;;1.17;1.05;;;;;;;;;;4988624;28;20038;-79
2024/03/25 12:39:19;;;;;;;0.65;0.50;;;;;;;;;;5006783;28;20068;-80
2024/03/25 12:41:45;;;;;;;0.43;0.43;;;;;;;;;;5007781;28;20038;-79
2024/03/25 12:44:14;;;;;;;0.43;0.43;;;;;;;;;;5006828;28;20045;-80
2024/03/25 12:46:39;;;;;;;0.73;0.63;;;;;;;;;;5007670;28;20747;-79
2024/03/25 12:49:06;;;;;;;0.47;0.47;;;;;;;;;;4989602;28;20045;-79
2024/03/25 12:51:31;;;;;;;0.70;0.50;;;;;;;;;;5007351;28;20093;-78
2024/03/25 12:53:57;;;;;;;0.60;0.40;;;;;;;;;;5005020;28;20623;-80
2024/03/25 12:56:22;;;;;;;0.20;0.20;;;;;;;;;;5008485;28;20017;-78
2024/03/25 12:58:48;;;;;;;0.68;0.68;;;;;;;;;;5007252;28;20026;-80
2024/03/25 13:01:14;;;;;;;0.57;0.50;;;;;;;;;;5007127;28;20085;-79
2024/03/25 13:03:39;;;;;;;0.25;0.25;;;;;;;;;;4997982;28;20450;-79
2024/03/25 13:06:04;;;;;;;0.45;0.45;;;;;;;;;;4987634;28;20049;-79
2024/03/25 13:08:30;;;;;;;0.80;0.75;;;;;;;;;;4987341;28;20037;-79
2024/03/25 13:10:55;;;;;;;0.30;0.30;;;;;;;;;;4988820;28;20037;-79
2024/03/25 13:13:21;;;;;;;0.20;0.20;;;;;;;;;;4982973;28;20060;-78
2024/03/25 13:15:46;;;;;;;0.50;0.50;;;;;;;;;;5006820;28;20132;-80
2024/03/25 13:18:11;;;;;;;0.30;0.30;;;;;;;;;;4988808;28;20481;-80
2024/03/25 13:20:38;;;;;;;0.98;0.88;;;;;;;;;;5006893;28;20029;-81
2024/03/25 13:23:04;;;;;;;0.30;0.30;;;;;;;;;;5005455;28;20029;-80
2024/03/25 13:25:29;;;;;;;1.88;0.40;;;;;;;;;;5004493;28;20220;-79
2024/03/25 13:27:54;;;;;;;0.20;0.20;;;;;;;;;;4994919;28;20046;-80
2024/03/25 13:30:20;;;;;;;0.57;0.47;;;;;;;;;;4986954;28;20460;-78
2024/03/25 13:32:45;;;;;;;0.38;0.38;;;;;;;;;;4987319;28;20026;-80
2024/03/25 13:35:11;;;;;;;0.20;0.20;;;;;;;;;;4986025;28;20042;-80
2024/03/25 13:37:36;;;;;;;0.32;0.32;;;;;;;;;;4985108;28;20056;-78
2024/03/25 13:40:01;;;;;;;0.22;0.22;;;;;;;;;;4987033;28;20561;-73
2024/03/25 13:42:27;;;;;;;0.50;0.50;;;;;;;;;;5006810;28;20060;-77
2024/03/25 13:44:54;;;;;;;1.05;0.60;;;;;;;;;;5004422;28;20067;-78
2024/03/25 13:47:19;;;;;;;3.25;1.40;;;;;;;;;;4994218;28;20042;-76
2024/03/25 13:49:44;;;;;;;0.30;0.30;;;;;;;;;;5006981;28;20130;-83
2024/03/25 13:52:10;;;;;;;0.30;0.30;;;;;;;;;;4985787;28;20038;-77
2024/03/25 13:54:35;;;;;;;0.50;0.40;;;;;;;;;;5006101;28;20038;-77
2024/03/25 13:57:00;;;;;;;0.35;0.35;;;;;;;;;;5005643;28;20076;-77
2024/03/25 13:59:26;;;;;;;1.52;1.42;;;;;;;;;;5006388;28;20152;-82
2024/03/25 14:01:53;;;;;;;0.25;0.25;;;;;;;;;;5001263;28;20061;-82
2024/03/25 14:04:19;;;;;;;0.35;0.35;;;;;;;;;;5008510;28;20041;-83
2024/03/25 14:06:45;;;;;;;4.22;1.13;;;;;;;;;;5025333;28;20087;-73
2024/03/25 14:09:22;;;;;;;2.40;2.20;;;;;;;;;;5022408;28;20091;-75
2024/03/25 14:11:48;;;;;;;0.20;0.20;;;;;;;;;;5025555;28;20548;-77
2024/03/25 14:14:13;;;;;;;0.30;0.30;;;;;;;;;;5009906;28;20215;-86
2024/03/25 14:16:38;;;;;;;0.30;0.30;;;;;;;;;;5026223;28;20489;-84
2024/03/25 14:19:04;;;;;;;1.05;0.95;;;;;;;;;;5029195;28;20041;-80
2024/03/25 14:21:29;;;;;;;0.30;0.30;;;;;;;;;;5026901;28;20049;-83
2024/03/25 14:23:54;;;;;;;1.08;0.82;;;;;;;;;;5023322;28;20397;-80
2024/03/25 14:26:20;;;;;;;0.60;0.60;;;;;;;;;;5027091;28;20125;-85
2024/03/25 14:28:45;;;;;;;0.93;0.82;;;;;;;;;;5024034;28;20041;-80
2024/03/25 14:31:11;;;;;;;0.52;0.52;;;;;;;;;;5025215;28;20130;-80
2024/03/25 14:33:36;;;;;;;0.43;0.43;;;;;;;;;;5016486;28;20029;-80
2024/03/25 14:36:03;;;;;;;0.28;0.28;;;;;;;;;;5009197;28;20436;-80
2024/03/25 14:38:28;;;;;;;0.40;0.32;;;;;;;;;;5004946;28;20029;-80
2024/03/25 14:40:54;;;;;;;0.30;0.30;;;;;;;;;;5022802;28;20040;-81
2024/03/25 14:43:19;;;;;;;6.60;0.90;;;;;;;;;;5027079;28;20217;-82